createdAt,value
2023-02-14T00:03:16.437Z,1903
2023-02-14T00:08:45.871Z,1934
2023-02-14T00:14:16.362Z,1912
2023-02-14T00:19:46.932Z,1911
2023-02-14T00:25:16.428Z,1892
2023-02-14T00:30:47.005Z,1897
2023-02-14T00:36:17.510Z,1876
2023-02-14T00:41:48.020Z,1884
2023-02-14T00:47:17.517Z,1865
2023-02-14T00:52:46.038Z,1848
2023-02-14T00:58:16.594Z,1851
2023-02-14T01:03:47.063Z,1877
2023-02-14T01:09:16.893Z,1899
2023-02-14T01:14:47.171Z,1884
2023-02-14T01:20:16.808Z,1866
2023-02-14T01:25:46.307Z,1853
2023-02-14T01:31:16.914Z,1851
2023-02-14T01:36:47.399Z,1873
2023-02-14T01:42:17.991Z,1886
2023-02-14T01:47:47.492Z,1876
2023-02-14T01:53:18.003Z,1884
2023-02-14T01:58:47.474Z,1889
2023-02-14T02:04:17.922Z,1864
2023-02-14T02:09:48.404Z,1857
2023-02-14T02:15:17.897Z,1868
2023-02-14T02:20:48.364Z,1864
2023-02-14T02:26:17.839Z,1870
2023-02-14T02:31:48.493Z,1870
2023-02-14T02:37:18.794Z,1885
2023-02-14T02:42:48.263Z,1902
2023-02-14T02:48:18.813Z,1908
2023-02-14T02:53:49.378Z,1901
2023-02-14T02:59:19.987Z,1891
2023-02-14T03:04:50.485Z,1901
2023-02-14T03:10:21.033Z,1895
2023-02-14T03:15:51.650Z,1897
2023-02-14T03:21:21.137Z,1893
2023-02-14T03:26:51.563Z,1898
2023-02-14T03:32:22.209Z,1888
2023-02-14T03:37:51.601Z,1871
2023-02-14T03:43:22.063Z,1892
2023-02-14T03:48:52.543Z,1697
2023-02-14T03:54:22.197Z,1642
2023-02-14T03:59:52.518Z,1623
2023-02-14T04:05:22.979Z,1593
2023-02-14T04:10:53.630Z,1557
2023-02-14T04:16:24.171Z,1531
2023-02-14T04:21:53.566Z,1509
2023-02-14T04:27:24.061Z,1485
2023-02-14T04:32:54.546Z,1470
2023-02-14T04:38:25.115Z,1454
2023-02-14T04:43:55.628Z,1433
2023-02-14T04:49:26.057Z,1414
2023-02-14T04:54:55.563Z,1398
2023-02-14T05:00:26.430Z,1377
2023-02-14T05:05:56.507Z,1358
2023-02-14T05:11:27.100Z,1350
2023-02-14T05:16:57.594Z,1331
2023-02-14T05:22:27.049Z,1325
2023-02-14T05:27:57.522Z,1309
2023-02-14T05:33:28.044Z,1304
2023-02-14T05:38:57.477Z,1296
2023-02-14T05:44:27.973Z,1285
2023-02-14T05:49:58.480Z,1270
2023-02-14T05:55:27.943Z,1258
2023-02-14T06:00:58.817Z,1249
2023-02-14T06:06:28.946Z,1240
2023-02-14T06:11:58.388Z,1227
2023-02-14T06:17:28.858Z,1218
2023-02-14T06:22:59.376Z,1214
2023-02-14T06:28:28.842Z,1203
2023-02-14T06:33:59.338Z,1187
2023-02-14T06:39:29.812Z,1179
2023-02-14T06:44:59.280Z,1173
2023-02-14T06:50:29.896Z,1166
2023-02-14T06:56:00.413Z,1155
2023-02-14T07:01:30.974Z,1151
2023-02-14T07:07:00.420Z,1142
2023-02-14T07:12:30.920Z,1134
2023-02-14T07:18:01.390Z,1125
2023-02-14T07:23:31.968Z,1123
2023-02-14T07:29:02.510Z,1116
2023-02-14T07:34:33.044Z,1110
2023-02-14T07:40:03.515Z,1112
2023-02-14T07:45:34.112Z,1106
2023-02-14T07:51:04.692Z,1094
2023-02-14T07:56:35.159Z,1095
2023-02-14T08:02:05.662Z,1092
2023-02-14T08:07:35.123Z,1087
2023-02-14T08:13:05.586Z,1086
2023-02-14T08:18:36.265Z,1077
2023-02-14T08:24:06.651Z,1068
2023-02-14T08:29:37.249Z,1068
2023-02-14T08:35:07.868Z,1061
2023-02-14T08:41:44.411Z,1054
2023-02-14T08:47:13.929Z,1057
2023-02-14T08:52:44.452Z,1048
2023-02-14T08:58:15.085Z,1040
2023-02-14T09:03:45.514Z,1038
2023-02-14T09:09:16.099Z,1036
2023-02-14T09:14:46.593Z,1033
2023-02-14T09:20:17.127Z,1019
2023-02-14T09:25:47.646Z,1018
2023-02-14T09:31:18.185Z,1011
2023-02-14T09:36:47.591Z,1001
2023-02-14T09:42:18.100Z,996
2023-02-14T09:47:48.670Z,992
2023-02-14T09:53:19.217Z,986
2023-02-14T09:58:49.749Z,982
2023-02-14T10:04:19.259Z,973
2023-02-14T10:09:49.699Z,970
2023-02-14T10:15:20.284Z,970
2023-02-14T10:20:50.734Z,974
2023-02-14T10:26:21.213Z,968
2023-02-14T10:31:50.808Z,959
2023-02-14T10:37:21.199Z,953
2023-02-14T10:42:51.668Z,954
2023-02-14T10:48:22.323Z,953
2023-02-14T10:53:52.763Z,948
2023-02-14T10:59:23.351Z,945
2023-02-14T11:04:53.882Z,938
2023-02-14T11:10:24.376Z,933
2023-02-14T11:15:53.815Z,930
2023-02-14T11:21:24.394Z,920
2023-02-14T11:26:54.769Z,919
2023-02-14T11:32:24.330Z,916
2023-02-14T11:37:54.751Z,914
2023-02-14T11:43:25.330Z,915
2023-02-14T11:48:54.798Z,913
2023-02-14T11:54:25.370Z,911
2023-02-14T11:59:55.901Z,910
2023-02-14T12:05:26.349Z,908
2023-02-14T12:10:56.858Z,907
2023-02-14T12:16:28.279Z,907
2023-02-14T12:21:57.930Z,897
2023-02-14T12:27:28.459Z,900
2023-02-14T12:32:58.983Z,894
2023-02-14T12:38:29.455Z,892
2023-02-14T12:43:59.946Z,890
2023-02-14T12:49:30.522Z,887
2023-02-14T12:55:01.021Z,882
2023-02-14T13:00:31.625Z,882
2023-02-14T13:06:02.089Z,884
2023-02-14T13:11:32.579Z,883
2023-02-14T13:17:02.069Z,875
2023-02-14T13:22:32.534Z,873
2023-02-14T13:31:21.387Z,871
2023-02-14T13:36:48.949Z,869
2023-02-14T13:42:19.576Z,861
2023-02-14T13:47:48.922Z,862
2023-02-14T13:53:18.582Z,864
2023-02-14T13:58:49.031Z,858
2023-02-14T14:04:19.569Z,850
2023-02-14T14:09:49.016Z,849
2023-02-14T14:15:18.621Z,854
2023-02-14T14:20:49.081Z,850
2023-02-14T14:26:19.674Z,844
2023-02-14T14:31:50.180Z,835
2023-02-14T14:37:20.726Z,839
2023-02-14T14:42:50.374Z,837
2023-02-14T14:48:20.828Z,832
2023-02-14T14:53:51.298Z,843
2023-02-14T14:59:20.835Z,840
2023-02-14T15:04:50.617Z,836
2023-02-14T15:10:20.900Z,825
2023-02-14T15:15:51.416Z,824
2023-02-14T15:21:20.833Z,822
2023-02-14T15:26:49.767Z,822
2023-02-14T15:32:19.876Z,821
2023-02-14T15:37:50.306Z,823
2023-02-14T15:43:19.794Z,818
2023-02-14T15:48:50.283Z,814
2023-02-14T15:54:20.743Z,814
2023-02-14T15:59:50.244Z,813
2023-02-14T16:05:20.731Z,809
2023-02-14T16:10:50.206Z,810
2023-02-14T16:16:20.671Z,815
2023-02-14T16:21:51.176Z,810
2023-02-14T16:27:20.627Z,809
2023-02-14T16:32:51.137Z,811
2023-02-14T16:38:21.625Z,812
2023-02-14T16:43:52.197Z,804
2023-02-14T16:49:22.666Z,801
2023-02-14T16:54:53.288Z,798
2023-02-14T17:00:23.760Z,802
2023-02-14T17:05:54.227Z,799
2023-02-14T17:11:24.846Z,799
2023-02-14T17:16:55.301Z,799
2023-02-14T17:22:25.883Z,799
2023-02-14T17:27:55.389Z,795
2023-02-14T17:33:25.864Z,791
2023-02-14T17:38:56.321Z,793
2023-02-14T17:44:26.931Z,793
2023-02-14T17:49:57.395Z,794
2023-02-14T17:55:26.884Z,781
2023-02-14T18:00:57.391Z,791
2023-02-14T18:06:27.863Z,790
2023-02-14T18:11:58.411Z,783
2023-02-14T18:17:29.002Z,774
2023-02-14T18:22:58.479Z,778
2023-02-14T18:28:28.945Z,786
2023-02-14T18:33:59.441Z,775
2023-02-14T18:39:28.914Z,773
2023-02-14T18:44:59.353Z,772
2023-02-14T18:50:30.045Z,772
2023-02-14T18:56:00.437Z,771
2023-02-14T19:01:30.908Z,768
2023-02-14T19:07:00.426Z,763
2023-02-14T19:12:30.857Z,769
2023-02-14T19:18:01.349Z,764
2023-02-14T19:23:31.960Z,767
2023-02-14T19:29:02.415Z,755
2023-02-14T19:34:32.038Z,754
2023-02-14T19:40:02.579Z,756
2023-02-14T19:45:33.021Z,760
2023-02-14T19:51:02.720Z,759
2023-02-14T19:56:32.977Z,756
2023-02-14T20:02:03.437Z,749
2023-02-14T20:07:34.047Z,749
2023-02-14T20:13:04.545Z,746
2023-02-14T20:18:34.963Z,750
2023-02-14T20:24:05.560Z,752
2023-02-14T20:29:38.546Z,748
2023-02-14T20:35:05.617Z,742
2023-02-14T20:40:36.101Z,735
2023-02-14T20:46:06.630Z,736
2023-02-14T20:51:37.172Z,734
2023-02-14T20:57:07.633Z,738
2023-02-14T21:02:38.115Z,737
2023-02-14T21:08:08.684Z,733
2023-02-14T21:13:39.285Z,732
2023-02-14T21:19:09.775Z,728
2023-02-14T21:24:40.353Z,731
2023-02-14T21:30:10.816Z,733
2023-02-14T21:35:40.332Z,723
2023-02-14T21:41:10.776Z,724
2023-02-14T21:46:41.400Z,723
2023-02-14T21:52:12.066Z,726
2023-02-14T21:57:42.680Z,726
2023-02-14T22:03:13.023Z,718
2023-02-14T22:08:42.489Z,717
2023-02-14T22:14:14.707Z,716
2023-02-14T22:19:43.519Z,715
2023-02-14T22:25:14.034Z,716
2023-02-14T22:30:44.493Z,713
2023-02-14T22:36:13.979Z,708
2023-02-14T22:41:44.503Z,708
2023-02-14T22:47:14.946Z,709
2023-02-14T22:52:45.663Z,709
2023-02-14T22:58:16.180Z,701
2023-02-14T23:03:45.592Z,700
2023-02-14T23:09:16.052Z,851
2023-02-14T23:14:46.550Z,891
2023-02-14T23:20:17.108Z,924
2023-02-14T23:25:47.611Z,949
2023-02-14T23:31:18.208Z,1002
2023-02-14T23:36:48.765Z,1026
2023-02-14T23:42:19.257Z,1044
2023-02-14T23:47:48.770Z,1076
2023-02-14T23:53:19.196Z,1088
2023-02-14T23:58:49.681Z,1095
